Fountain Hill, Pennsylvania
Current Conditions -  °F | °C
As of 8:51 PM on Sunday 23 Nov 2014 (Local Time) from KABE Reporting Station
Broken Clouds Broken Clouds  
Wind Chill: 47°   Ceiling: 5000
Heat Index: 47°   Visibility: 10mi
Dew Point: 30°   Wind: 0mph
Humidity: 52%   Direction: NA
Pressure: 30.04"   Gusts: NA
Location:  40.5862°N, 75.372°W
Report Text: KABE 240151Z 00000KT 10SM BKN050 08/M01 A3004 RMK AO2 SLP175 T00831011
Loading
Personal Weather Stations






























Interactive Weather Map New forecast layout! Learn more

10-Day Weather Forecast

Advertisements
Track Severe Weather on mobile